sensor_id;sensor_type;location;lat;lon;timestamp;temperature;humidity
22418;DHT22;11376;50.932;4.442;2024-03-25T00:00:12;5.00;99.90
22418;DHT22;11376;50.932;4.442;2024-03-25T00:02:39;5.00;99.90
22418;DHT22;11376;50.932;4.442;2024-03-25T00:05:06;5.00;99.90
22418;DHT22;11376;50.932;4.442;2024-03-25T00:07:38;5.00;99.90
22418;DHT22;11376;50.932;4.442;2024-03-25T00:10:05;5.00;99.90
22418;DHT22;11376;50.932;4.442;2024-03-25T00:12:34;5.00;99.90
22418;DHT22;11376;50.932;4.442;2024-03-25T00:15:00;5.00;99.90
22418;DHT22;11376;50.932;4.442;2024-03-25T00:17:26;5.00;99.90
22418;DHT22;11376;50.932;4.442;2024-03-25T00:19:52;5.00;99.90
22418;DHT22;11376;50.932;4.442;2024-03-25T00:22:18;5.00;99.90
22418;DHT22;11376;50.932;4.442;2024-03-25T00:24:48;5.00;99.90
22418;DHT22;11376;50.932;4.442;2024-03-25T00:27:15;5.00;99.90
22418;DHT22;11376;50.932;4.442;2024-03-25T00:29:41;4.90;99.90
22418;DHT22;11376;50.932;4.442;2024-03-25T00:32:07;4.90;99.90
22418;DHT22;11376;50.932;4.442;2024-03-25T00:34:33;4.80;99.90
22418;DHT22;11376;50.932;4.442;2024-03-25T00:37:00;4.80;99.90
22418;DHT22;11376;50.932;4.442;2024-03-25T00:39:26;4.80;99.90
22418;DHT22;11376;50.932;4.442;2024-03-25T00:41:53;4.80;99.90
22418;DHT22;11376;50.932;4.442;2024-03-25T00:44:18;4.80;99.90
22418;DHT22;11376;50.932;4.442;2024-03-25T00:46:44;4.80;99.90
22418;DHT22;11376;50.932;4.442;2024-03-25T00:49:10;4.80;99.90
22418;DHT22;11376;50.932;4.442;2024-03-25T00:51:37;4.80;99.90
22418;DHT22;11376;50.932;4.442;2024-03-25T00:54:03;4.80;99.90
22418;DHT22;11376;50.932;4.442;2024-03-25T00:56:30;4.80;99.90
22418;DHT22;11376;50.932;4.442;2024-03-25T00:58:56;4.70;99.90
22418;DHT22;11376;50.932;4.442;2024-03-25T01:01:23;4.70;99.90
22418;DHT22;11376;50.932;4.442;2024-03-25T01:03:49;4.70;99.90
22418;DHT22;11376;50.932;4.442;2024-03-25T01:06:15;4.60;99.90
22418;DHT22;11376;50.932;4.442;2024-03-25T01:08:41;4.60;99.90
22418;DHT22;11376;50.932;4.442;2024-03-25T01:11:06;4.60;99.90
22418;DHT22;11376;50.932;4.442;2024-03-25T01:13:32;4.50;99.90
22418;DHT22;11376;50.932;4.442;2024-03-25T01:15:58;4.50;99.90
22418;DHT22;11376;50.932;4.442;2024-03-25T01:18:23;4.50;99.90
22418;DHT22;11376;50.932;4.442;2024-03-25T01:20:49;4.40;99.90
22418;DHT22;11376;50.932;4.442;2024-03-25T01:23:15;4.40;99.90
22418;DHT22;11376;50.932;4.442;2024-03-25T01:25:41;4.40;99.90
22418;DHT22;11376;50.932;4.442;2024-03-25T01:28:07;4.40;99.90
22418;DHT22;11376;50.932;4.442;2024-03-25T01:30:33;4.40;99.90
22418;DHT22;11376;50.932;4.442;2024-03-25T01:33:01;4.30;99.90
22418;DHT22;11376;50.932;4.442;2024-03-25T01:35:27;4.30;99.90
22418;DHT22;11376;50.932;4.442;2024-03-25T01:37:53;4.30;99.90
22418;DHT22;11376;50.932;4.442;2024-03-25T01:40:18;4.30;99.90
22418;DHT22;11376;50.932;4.442;2024-03-25T01:43:02;4.30;99.90
22418;DHT22;11376;50.932;4.442;2024-03-25T01:45:30;4.30;99.90
22418;DHT22;11376;50.932;4.442;2024-03-25T01:48:02;4.30;99.90
22418;DHT22;11376;50.932;4.442;2024-03-25T01:50:30;4.20;99.90
22418;DHT22;11376;50.932;4.442;2024-03-25T01:52:58;4.20;99.90
22418;DHT22;11376;50.932;4.442;2024-03-25T01:55:29;4.20;99.90
22418;DHT22;11376;50.932;4.442;2024-03-25T01:57:56;4.20;99.90
22418;DHT22;11376;50.932;4.442;2024-03-25T02:00:25;4.10;99.90
22418;DHT22;11376;50.932;4.442;2024-03-25T02:02:52;4.10;99.90
22418;DHT22;11376;50.932;4.442;2024-03-25T02:05:19;4.10;99.90
22418;DHT22;11376;50.932;4.442;2024-03-25T02:07:45;4.10;99.90
22418;DHT22;11376;50.932;4.442;2024-03-25T02:10:12;4.10;99.90
22418;DHT22;11376;50.932;4.442;2024-03-25T02:12:42;4.10;99.90
22418;DHT22;11376;50.932;4.442;2024-03-25T02:15:09;4.10;99.90
22418;DHT22;11376;50.932;4.442;2024-03-25T02:17:35;4.10;99.90
22418;DHT22;11376;50.932;4.442;2024-03-25T02:20:04;4.20;99.90
22418;DHT22;11376;50.932;4.442;2024-03-25T02:22:32;4.10;99.90
22418;DHT22;11376;50.932;4.442;2024-03-25T02:24:59;4.10;99.90
22418;DHT22;11376;50.932;4.442;2024-03-25T02:27:26;4.10;99.90
22418;DHT22;11376;50.932;4.442;2024-03-25T02:29:54;4.00;99.90
22418;DHT22;11376;50.932;4.442;2024-03-25T02:32:20;4.00;99.90
22418;DHT22;11376;50.932;4.442;2024-03-25T02:34:51;4.00;99.90
22418;DHT22;11376;50.932;4.442;2024-03-25T02:37:17;4.00;99.90
22418;DHT22;11376;50.932;4.442;2024-03-25T02:39:44;4.00;99.90
22418;DHT22;11376;50.932;4.442;2024-03-25T02:42:10;3.90;99.90
22418;DHT22;11376;50.932;4.442;2024-03-25T02:44:36;4.00;99.90
22418;DHT22;11376;50.932;4.442;2024-03-25T02:47:02;3.90;99.90
22418;DHT22;11376;50.932;4.442;2024-03-25T02:49:29;4.00;99.90
22418;DHT22;11376;50.932;4.442;2024-03-25T02:51:55;4.00;99.90
22418;DHT22;11376;50.932;4.442;2024-03-25T02:54:20;3.90;99.90
22418;DHT22;11376;50.932;4.442;2024-03-25T02:56:47;3.90;99.90
22418;DHT22;11376;50.932;4.442;2024-03-25T02:59:13;3.80;99.90
22418;DHT22;11376;50.932;4.442;2024-03-25T03:01:39;3.80;99.90
22418;DHT22;11376;50.932;4.442;2024-03-25T03:04:05;3.80;99.90
22418;DHT22;11376;50.932;4.442;2024-03-25T03:06:30;3.80;99.90
22418;DHT22;11376;50.932;4.442;2024-03-25T03:08:56;3.70;99.90
22418;DHT22;11376;50.932;4.442;2024-03-25T03:11:22;3.70;99.90
22418;DHT22;11376;50.932;4.442;2024-03-25T03:13:48;3.70;99.90
22418;DHT22;11376;50.932;4.442;2024-03-25T03:16:13;3.80;99.90
22418;DHT22;11376;50.932;4.442;2024-03-25T03:18:39;3.70;99.90
22418;DHT22;11376;50.932;4.442;2024-03-25T03:21:05;3.70;99.90
22418;DHT22;11376;50.932;4.442;2024-03-25T03:23:31;3.80;99.90
22418;DHT22;11376;50.932;4.442;2024-03-25T03:25:57;3.70;99.90
22418;DHT22;11376;50.932;4.442;2024-03-25T03:28:25;3.70;99.90
22418;DHT22;11376;50.932;4.442;2024-03-25T03:30:51;3.70;99.90
22418;DHT22;11376;50.932;4.442;2024-03-25T03:33:17;3.70;99.90
22418;DHT22;11376;50.932;4.442;2024-03-25T03:35:43;3.70;99.90
22418;DHT22;11376;50.932;4.442;2024-03-25T03:38:09;3.80;99.90
22418;DHT22;11376;50.932;4.442;2024-03-25T03:40:34;3.80;99.90
22418;DHT22;11376;50.932;4.442;2024-03-25T03:43:00;3.80;99.90
22418;DHT22;11376;50.932;4.442;2024-03-25T03:45:26;3.80;99.90
22418;DHT22;11376;50.932;4.442;2024-03-25T03:47:51;3.70;99.90
22418;DHT22;11376;50.932;4.442;2024-03-25T03:50:17;3.70;99.90
22418;DHT22;11376;50.932;4.442;2024-03-25T03:52:43;3.70;99.90
22418;DHT22;11376;50.932;4.442;2024-03-25T03:55:09;3.60;99.90
22418;DHT22;11376;50.932;4.442;2024-03-25T03:57:35;3.70;99.90
22418;DHT22;11376;50.932;4.442;2024-03-25T04:00:01;3.70;99.90
22418;DHT22;11376;50.932;4.442;2024-03-25T04:02:28;3.70;99.90
22418;DHT22;11376;50.932;4.442;2024-03-25T04:04:56;3.60;99.90
22418;DHT22;11376;50.932;4.442;2024-03-25T04:07:22;3.60;99.90
22418;DHT22;11376;50.932;4.442;2024-03-25T04:09:54;3.60;99.90
22418;DHT22;11376;50.932;4.442;2024-03-25T04:12:20;3.50;99.90
22418;DHT22;11376;50.932;4.442;2024-03-25T04:14:49;3.50;99.90
22418;DHT22;11376;50.932;4.442;2024-03-25T04:17:22;3.50;99.90
22418;DHT22;11376;50.932;4.442;2024-03-25T04:19:49;3.50;99.90
22418;DHT22;11376;50.932;4.442;2024-03-25T04:22:15;3.50;99.90
22418;DHT22;11376;50.932;4.442;2024-03-25T04:24:43;3.50;99.90
22418;DHT22;11376;50.932;4.442;2024-03-25T04:27:08;3.50;99.90
22418;DHT22;11376;50.932;4.442;2024-03-25T04:29:34;3.50;99.90
22418;DHT22;11376;50.932;4.442;2024-03-25T04:32:00;3.50;99.90
22418;DHT22;11376;50.932;4.442;2024-03-25T04:34:25;3.50;99.90
22418;DHT22;11376;50.932;4.442;2024-03-25T04:36:51;3.50;99.90
22418;DHT22;11376;50.932;4.442;2024-03-25T04:39:19;3.50;99.90
22418;DHT22;11376;50.932;4.442;2024-03-25T04:41:44;3.50;99.90
22418;DHT22;11376;50.932;4.442;2024-03-25T04:44:11;3.50;99.90
22418;DHT22;11376;50.932;4.442;2024-03-25T04:46:37;3.50;99.90
22418;DHT22;11376;50.932;4.442;2024-03-25T04:49:03;3.60;99.90
22418;DHT22;11376;50.932;4.442;2024-03-25T04:51:28;3.60;99.90
22418;DHT22;11376;50.932;4.442;2024-03-25T04:53:54;3.60;99.90
22418;DHT22;11376;50.932;4.442;2024-03-25T04:56:20;3.60;99.90
22418;DHT22;11376;50.932;4.442;2024-03-25T04:58:45;3.70;99.90
22418;DHT22;11376;50.932;4.442;2024-03-25T05:01:11;3.70;99.90
22418;DHT22;11376;50.932;4.442;2024-03-25T05:03:37;3.70;99.90
22418;DHT22;11376;50.932;4.442;2024-03-25T05:06:03;3.70;99.90
22418;DHT22;11376;50.932;4.442;2024-03-25T05:08:31;3.70;99.90
22418;DHT22;11376;50.932;4.442;2024-03-25T05:10:56;3.70;99.90
22418;DHT22;11376;50.932;4.442;2024-03-25T05:13:22;3.60;99.90
22418;DHT22;11376;50.932;4.442;2024-03-25T05:15:51;3.60;99.90
22418;DHT22;11376;50.932;4.442;2024-03-25T05:18:18;3.60;99.90
22418;DHT22;11376;50.932;4.442;2024-03-25T05:20:44;3.60;99.90
22418;DHT22;11376;50.932;4.442;2024-03-25T05:23:10;3.50;99.90
22418;DHT22;11376;50.932;4.442;2024-03-25T05:25:36;3.40;99.90
22418;DHT22;11376;50.932;4.442;2024-03-25T05:28:02;3.50;99.90
22418;DHT22;11376;50.932;4.442;2024-03-25T05:30:27;3.50;99.90
22418;DHT22;11376;50.932;4.442;2024-03-25T05:32:53;3.50;99.90
22418;DHT22;11376;50.932;4.442;2024-03-25T05:35:19;3.60;99.90
22418;DHT22;11376;50.932;4.442;2024-03-25T05:37:46;3.60;99.90
22418;DHT22;11376;50.932;4.442;2024-03-25T05:40:12;3.60;99.90
22418;DHT22;11376;50.932;4.442;2024-03-25T05:42:38;3.50;99.90
22418;DHT22;11376;50.932;4.442;2024-03-25T05:45:04;3.50;99.90
22418;DHT22;11376;50.932;4.442;2024-03-25T05:47:30;3.50;99.90
22418;DHT22;11376;50.932;4.442;2024-03-25T05:49:55;3.60;99.90
22418;DHT22;11376;50.932;4.442;2024-03-25T05:52:21;3.70;99.90
22418;DHT22;11376;50.932;4.442;2024-03-25T05:54:47;3.80;99.90
22418;DHT22;11376;50.932;4.442;2024-03-25T05:57:13;3.80;99.90
22418;DHT22;11376;50.932;4.442;2024-03-25T05:59:38;4.00;99.90
22418;DHT22;11376;50.932;4.442;2024-03-25T06:02:04;4.10;99.90
22418;DHT22;11376;50.932;4.442;2024-03-25T06:04:30;4.20;99.90
22418;DHT22;11376;50.932;4.442;2024-03-25T06:06:56;4.30;99.90
22418;DHT22;11376;50.932;4.442;2024-03-25T06:09:22;4.50;99.90
22418;DHT22;11376;50.932;4.442;2024-03-25T06:11:47;4.60;99.90
22418;DHT22;11376;50.932;4.442;2024-03-25T06:14:13;4.70;99.90
22418;DHT22;11376;50.932;4.442;2024-03-25T06:16:39;4.80;99.90
22418;DHT22;11376;50.932;4.442;2024-03-25T06:19:04;5.00;99.90
22418;DHT22;11376;50.932;4.442;2024-03-25T06:21:30;5.00;99.90
22418;DHT22;11376;50.932;4.442;2024-03-25T06:23:56;5.10;99.90
22418;DHT22;11376;50.932;4.442;2024-03-25T06:26:21;5.10;99.90
22418;DHT22;11376;50.932;4.442;2024-03-25T06:28:47;5.20;99.90
22418;DHT22;11376;50.932;4.442;2024-03-25T06:31:13;5.30;99.90
22418;DHT22;11376;50.932;4.442;2024-03-25T06:33:57;5.40;99.90
22418;DHT22;11376;50.932;4.442;2024-03-25T06:36:42;5.50;99.90
22418;DHT22;11376;50.932;4.442;2024-03-25T06:39:07;5.50;99.90
22418;DHT22;11376;50.932;4.442;2024-03-25T06:41:33;5.60;99.90
22418;DHT22;11376;50.932;4.442;2024-03-25T06:43:59;5.60;99.90
22418;DHT22;11376;50.932;4.442;2024-03-25T06:46:24;5.70;99.90
22418;DHT22;11376;50.932;4.442;2024-03-25T06:48:50;5.80;99.90
22418;DHT22;11376;50.932;4.442;2024-03-25T06:51:17;5.80;99.90
22418;DHT22;11376;50.932;4.442;2024-03-25T06:53:44;5.80;99.90
22418;DHT22;11376;50.932;4.442;2024-03-25T06:56:10;5.90;99.90
22418;DHT22;11376;50.932;4.442;2024-03-25T06:58:36;6.00;99.90
22418;DHT22;11376;50.932;4.442;2024-03-25T07:01:07;6.00;99.90
22418;DHT22;11376;50.932;4.442;2024-03-25T07:03:33;6.10;99.90
22418;DHT22;11376;50.932;4.442;2024-03-25T07:06:00;6.10;99.90
22418;DHT22;11376;50.932;4.442;2024-03-25T07:08:26;6.20;99.90
22418;DHT22;11376;50.932;4.442;2024-03-25T07:10:53;6.20;99.90
22418;DHT22;11376;50.932;4.442;2024-03-25T07:13:19;6.30;99.90
22418;DHT22;11376;50.932;4.442;2024-03-25T07:15:44;6.30;99.90
22418;DHT22;11376;50.932;4.442;2024-03-25T07:18:10;6.40;99.90
22418;DHT22;11376;50.932;4.442;2024-03-25T07:20:39;6.40;99.90
22418;DHT22;11376;50.932;4.442;2024-03-25T07:23:04;6.50;99.90
22418;DHT22;11376;50.932;4.442;2024-03-25T07:25:30;6.60;99.90
22418;DHT22;11376;50.932;4.442;2024-03-25T07:27:57;6.70;99.90
22418;DHT22;11376;50.932;4.442;2024-03-25T07:30:23;6.70;99.90
22418;DHT22;11376;50.932;4.442;2024-03-25T07:32:53;6.80;99.90
22418;DHT22;11376;50.932;4.442;2024-03-25T07:35:19;6.90;99.90
22418;DHT22;11376;50.932;4.442;2024-03-25T07:37:44;7.00;99.90
22418;DHT22;11376;50.932;4.442;2024-03-25T07:40:10;7.10;99.90
22418;DHT22;11376;50.932;4.442;2024-03-25T07:42:39;7.20;99.90
22418;DHT22;11376;50.932;4.442;2024-03-25T07:45:05;7.30;99.90
22418;DHT22;11376;50.932;4.442;2024-03-25T07:47:32;7.30;99.90
22418;DHT22;11376;50.932;4.442;2024-03-25T07:49:58;7.40;99.90
22418;DHT22;11376;50.932;4.442;2024-03-25T07:52:25;7.60;99.90
22418;DHT22;11376;50.932;4.442;2024-03-25T07:54:51;7.70;99.90
22418;DHT22;11376;50.932;4.442;2024-03-25T07:57:17;7.70;99.90
22418;DHT22;11376;50.932;4.442;2024-03-25T07:59:43;7.90;99.90
22418;DHT22;11376;50.932;4.442;2024-03-25T08:02:09;8.00;99.90
22418;DHT22;11376;50.932;4.442;2024-03-25T08:04:34;8.00;99.90
22418;DHT22;11376;50.932;4.442;2024-03-25T08:07:00;8.20;99.90
22418;DHT22;11376;50.932;4.442;2024-03-25T08:09:26;8.30;99.90
22418;DHT22;11376;50.932;4.442;2024-03-25T08:11:51;8.20;99.90
22418;DHT22;11376;50.932;4.442;2024-03-25T08:14:17;8.20;99.90
22418;DHT22;11376;50.932;4.442;2024-03-25T08:16:43;8.30;99.90
22418;DHT22;11376;50.932;4.442;2024-03-25T08:19:09;8.30;99.90
22418;DHT22;11376;50.932;4.442;2024-03-25T08:21:34;8.20;99.90
22418;DHT22;11376;50.932;4.442;2024-03-25T08:24:00;8.30;99.90
22418;DHT22;11376;50.932;4.442;2024-03-25T08:26:26;8.40;99.90
22418;DHT22;11376;50.932;4.442;2024-03-25T08:28:51;8.40;99.90
22418;DHT22;11376;50.932;4.442;2024-03-25T08:31:17;8.40;99.90
22418;DHT22;11376;50.932;4.442;2024-03-25T08:33:43;8.40;99.90
22418;DHT22;11376;50.932;4.442;2024-03-25T08:36:09;8.50;99.90
22418;DHT22;11376;50.932;4.442;2024-03-25T08:38:35;8.70;99.90
22418;DHT22;11376;50.932;4.442;2024-03-25T08:41:01;8.80;99.90
22418;DHT22;11376;50.932;4.442;2024-03-25T08:43:27;8.80;99.90
22418;DHT22;11376;50.932;4.442;2024-03-25T08:45:52;8.80;99.90
22418;DHT22;11376;50.932;4.442;2024-03-25T08:48:18;8.80;99.90
22418;DHT22;11376;50.932;4.442;2024-03-25T08:50:44;8.80;99.90
22418;DHT22;11376;50.932;4.442;2024-03-25T08:53:09;8.80;99.90
22418;DHT22;11376;50.932;4.442;2024-03-25T08:55:35;8.90;99.90
22418;DHT22;11376;50.932;4.442;2024-03-25T08:58:01;9.00;99.90
22418;DHT22;11376;50.932;4.442;2024-03-25T09:00:27;9.20;99.90
22418;DHT22;11376;50.932;4.442;2024-03-25T09:02:53;9.30;99.90
22418;DHT22;11376;50.932;4.442;2024-03-25T09:05:20;9.50;99.90
22418;DHT22;11376;50.932;4.442;2024-03-25T09:07:48;9.50;99.90
22418;DHT22;11376;50.932;4.442;2024-03-25T09:10:17;9.60;99.90
22418;DHT22;11376;50.932;4.442;2024-03-25T09:13:01;9.90;99.90
22418;DHT22;11376;50.932;4.442;2024-03-25T09:15:26;10.00;99.90
22418;DHT22;11376;50.932;4.442;2024-03-25T09:17:53;10.10;99.90
22418;DHT22;11376;50.932;4.442;2024-03-25T09:20:19;10.20;99.90
22418;DHT22;11376;50.932;4.442;2024-03-25T09:22:46;10.10;99.90
22418;DHT22;11376;50.932;4.442;2024-03-25T09:25:14;10.30;99.90
22418;DHT22;11376;50.932;4.442;2024-03-25T09:27:40;10.30;99.90
22418;DHT22;11376;50.932;4.442;2024-03-25T09:30:06;10.40;99.90
22418;DHT22;11376;50.932;4.442;2024-03-25T09:32:34;10.40;99.90
22418;DHT22;11376;50.932;4.442;2024-03-25T09:35:01;10.40;99.90
22418;DHT22;11376;50.932;4.442;2024-03-25T09:37:26;10.60;99.90
22418;DHT22;11376;50.932;4.442;2024-03-25T09:39:52;10.50;99.90
22418;DHT22;11376;50.932;4.442;2024-03-25T09:42:28;10.70;99.90
22418;DHT22;11376;50.932;4.442;2024-03-25T09:44:56;10.90;99.90
22418;DHT22;11376;50.932;4.442;2024-03-25T09:47:23;11.00;99.90
22418;DHT22;11376;50.932;4.442;2024-03-25T09:49:49;11.00;99.90
22418;DHT22;11376;50.932;4.442;2024-03-25T09:52:17;11.00;99.90
22418;DHT22;11376;50.932;4.442;2024-03-25T09:54:44;11.10;99.90
22418;DHT22;11376;50.932;4.442;2024-03-25T09:57:10;11.10;99.90
22418;DHT22;11376;50.932;4.442;2024-03-25T09:59:36;11.30;99.90
22418;DHT22;11376;50.932;4.442;2024-03-25T10:02:03;11.40;99.90
22418;DHT22;11376;50.932;4.442;2024-03-25T10:04:29;11.50;99.90
22418;DHT22;11376;50.932;4.442;2024-03-25T10:06:55;11.70;99.90
22418;DHT22;11376;50.932;4.442;2024-03-25T10:09:21;11.80;99.90
22418;DHT22;11376;50.932;4.442;2024-03-25T10:11:48;11.70;99.90
22418;DHT22;11376;50.932;4.442;2024-03-25T10:14:17;11.70;99.90
22418;DHT22;11376;50.932;4.442;2024-03-25T10:16:44;12.00;99.90
22418;DHT22;11376;50.932;4.442;2024-03-25T10:19:10;12.20;99.90
22418;DHT22;11376;50.932;4.442;2024-03-25T10:21:36;12.40;99.90
22418;DHT22;11376;50.932;4.442;2024-03-25T10:24:04;12.50;99.90
22418;DHT22;11376;50.932;4.442;2024-03-25T10:26:31;12.70;99.90
22418;DHT22;11376;50.932;4.442;2024-03-25T10:29:04;12.60;99.90
22418;DHT22;11376;50.932;4.442;2024-03-25T10:31:32;12.60;99.90
22418;DHT22;11376;50.932;4.442;2024-03-25T10:33:58;13.30;99.90
22418;DHT22;11376;50.932;4.442;2024-03-25T10:36:24;13.80;99.90
22418;DHT22;11376;50.932;4.442;2024-03-25T10:38:56;14.20;99.90
22418;DHT22;11376;50.932;4.442;2024-03-25T10:41:22;15.10;99.90
22418;DHT22;11376;50.932;4.442;2024-03-25T10:43:49;16.20;99.90
22418;DHT22;11376;50.932;4.442;2024-03-25T10:46:21;16.70;99.90
22418;DHT22;11376;50.932;4.442;2024-03-25T10:51:22;17.60;99.90
22418;DHT22;11376;50.932;4.442;2024-03-25T10:53:51;18.20;99.90
22418;DHT22;11376;50.932;4.442;2024-03-25T10:56:20;19.90;99.90
22418;DHT22;11376;50.932;4.442;2024-03-25T10:58:48;18.90;92.50
22418;DHT22;11376;50.932;4.442;2024-03-25T11:01:17;19.00;90.40
22418;DHT22;11376;50.932;4.442;2024-03-25T11:03:48;19.70;85.90
22418;DHT22;11376;50.932;4.442;2024-03-25T11:06:15;19.80;87.80
22418;DHT22;11376;50.932;4.442;2024-03-25T11:08:42;19.20;84.80
22418;DHT22;11376;50.932;4.442;2024-03-25T11:11:12;18.60;90.60
22418;DHT22;11376;50.932;4.442;2024-03-25T11:13:38;18.80;90.70
22418;DHT22;11376;50.932;4.442;2024-03-25T11:16:05;20.60;87.20
22418;DHT22;11376;50.932;4.442;2024-03-25T11:18:31;19.80;81.90
22418;DHT22;11376;50.932;4.442;2024-03-25T11:23:41;19.20;84.80
22418;DHT22;11376;50.932;4.442;2024-03-25T11:28:42;19.50;76.50
22418;DHT22;11376;50.932;4.442;2024-03-25T11:31:08;17.80;83.90
22418;DHT22;11376;50.932;4.442;2024-03-25T11:33:39;16.80;83.30
22418;DHT22;11376;50.932;4.442;2024-03-25T11:36:06;15.70;83.20
22418;DHT22;11376;50.932;4.442;2024-03-25T11:38:31;16.90;85.80
22418;DHT22;11376;50.932;4.442;2024-03-25T11:40:57;18.80;79.70
22418;DHT22;11376;50.932;4.442;2024-03-25T11:43:23;19.00;78.10
22418;DHT22;11376;50.932;4.442;2024-03-25T11:45:50;18.50;80.10
22418;DHT22;11376;50.932;4.442;2024-03-25T11:48:16;17.50;84.10
22418;DHT22;11376;50.932;4.442;2024-03-25T11:50:48;18.30;85.60
22418;DHT22;11376;50.932;4.442;2024-03-25T11:53:14;20.10;77.80
22418;DHT22;11376;50.932;4.442;2024-03-25T11:55:46;22.30;70.80
22418;DHT22;11376;50.932;4.442;2024-03-25T11:58:12;23.60;63.00
22418;DHT22;11376;50.932;4.442;2024-03-25T12:00:47;23.30;61.10
22418;DHT22;11376;50.932;4.442;2024-03-25T12:03:17;22.00;60.50
22418;DHT22;11376;50.932;4.442;2024-03-25T12:05:46;20.50;64.20
22418;DHT22;11376;50.932;4.442;2024-03-25T12:08:11;21.30;64.00
22418;DHT22;11376;50.932;4.442;2024-03-25T12:10:39;23.60;59.60
22418;DHT22;11376;50.932;4.442;2024-03-25T12:13:23;24.60;55.30
22418;DHT22;11376;50.932;4.442;2024-03-25T12:15:51;24.60;53.10
22418;DHT22;11376;50.932;4.442;2024-03-25T12:18:17;23.30;52.50
22418;DHT22;11376;50.932;4.442;2024-03-25T12:20:48;23.00;52.40
22418;DHT22;11376;50.932;4.442;2024-03-25T12:23:14;22.00;55.60
22418;DHT22;11376;50.932;4.442;2024-03-25T12:25:40;22.90;55.10
22418;DHT22;11376;50.932;4.442;2024-03-25T12:28:09;24.30;55.80
22418;DHT22;11376;50.932;4.442;2024-03-25T12:30:53;26.30;50.80
22418;DHT22;11376;50.932;4.442;2024-03-25T12:33:21;26.60;47.90
22418;DHT22;11376;50.932;4.442;2024-03-25T12:35:49;25.50;47.60
22418;DHT22;11376;50.932;4.442;2024-03-25T12:38:28;23.20;48.80
22418;DHT22;11376;50.932;4.442;2024-03-25T12:41:14;21.00;53.00
22418;DHT22;11376;50.932;4.442;2024-03-25T12:43:43;20.50;53.60
22418;DHT22;11376;50.932;4.442;2024-03-25T12:46:12;20.30;57.60
22418;DHT22;11376;50.932;4.442;2024-03-25T12:48:38;21.70;55.20
22418;DHT22;11376;50.932;4.442;2024-03-25T12:51:05;22.70;52.10
22418;DHT22;11376;50.932;4.442;2024-03-25T12:53:31;22.90;50.00
22418;DHT22;11376;50.932;4.442;2024-03-25T12:55:56;24.10;48.60
22418;DHT22;11376;50.932;4.442;2024-03-25T12:58:22;24.10;47.80
22418;DHT22;11376;50.932;4.442;2024-03-25T13:00:48;23.80;48.60
22418;DHT22;11376;50.932;4.442;2024-03-25T13:03:14;23.90;48.90
22418;DHT22;11376;50.932;4.442;2024-03-25T13:05:42;23.30;48.80
22418;DHT22;11376;50.932;4.442;2024-03-25T13:08:08;23.10;50.00
22418;DHT22;11376;50.932;4.442;2024-03-25T13:10:34;23.80;50.40
22418;DHT22;11376;50.932;4.442;2024-03-25T13:13:01;25.50;47.80
22418;DHT22;11376;50.932;4.442;2024-03-25T13:15:27;24.60;46.50
22418;DHT22;11376;50.932;4.442;2024-03-25T13:17:54;24.90;47.10
22418;DHT22;11376;50.932;4.442;2024-03-25T13:20:19;25.20;46.80
22418;DHT22;11376;50.932;4.442;2024-03-25T13:22:45;24.00;48.60
22418;DHT22;11376;50.932;4.442;2024-03-25T13:25:12;23.40;48.30
22418;DHT22;11376;50.932;4.442;2024-03-25T13:27:38;22.80;49.70
22418;DHT22;11376;50.932;4.442;2024-03-25T13:30:05;22.40;50.40
22418;DHT22;11376;50.932;4.442;2024-03-25T13:32:31;23.00;50.30
22418;DHT22;11376;50.932;4.442;2024-03-25T13:34:57;24.40;49.50
22418;DHT22;11376;50.932;4.442;2024-03-25T13:37:23;24.70;47.70
22418;DHT22;11376;50.932;4.442;2024-03-25T13:39:50;25.80;47.50
22418;DHT22;11376;50.932;4.442;2024-03-25T13:42:16;26.60;46.20
22418;DHT22;11376;50.932;4.442;2024-03-25T13:44:42;27.10;44.40
22418;DHT22;11376;50.932;4.442;2024-03-25T13:47:07;26.60;43.50
22418;DHT22;11376;50.932;4.442;2024-03-25T13:49:36;24.80;44.30
22418;DHT22;11376;50.932;4.442;2024-03-25T13:52:03;24.60;46.30
22418;DHT22;11376;50.932;4.442;2024-03-25T13:54:30;23.80;46.40
22418;DHT22;11376;50.932;4.442;2024-03-25T13:56:56;23.80;46.60
22418;DHT22;11376;50.932;4.442;2024-03-25T13:59:22;23.20;47.80
22418;DHT22;11376;50.932;4.442;2024-03-25T14:01:48;22.00;47.90
22418;DHT22;11376;50.932;4.442;2024-03-25T14:04:14;21.10;49.60
22418;DHT22;11376;50.932;4.442;2024-03-25T14:06:39;21.80;49.50
22418;DHT22;11376;50.932;4.442;2024-03-25T14:09:06;23.00;48.30
22418;DHT22;11376;50.932;4.442;2024-03-25T14:11:34;23.90;47.50
22418;DHT22;11376;50.932;4.442;2024-03-25T14:14:00;24.20;46.80
22418;DHT22;11376;50.932;4.442;2024-03-25T14:16:27;23.70;45.70
22418;DHT22;11376;50.932;4.442;2024-03-25T14:18:53;23.60;46.80
22418;DHT22;11376;50.932;4.442;2024-03-25T14:21:18;22.70;47.70
22418;DHT22;11376;50.932;4.442;2024-03-25T14:23:44;22.90;47.40
22418;DHT22;11376;50.932;4.442;2024-03-25T14:26:12;22.60;47.50
22418;DHT22;11376;50.932;4.442;2024-03-25T14:28:40;23.50;47.80
22418;DHT22;11376;50.932;4.442;2024-03-25T14:31:05;24.40;45.70
22418;DHT22;11376;50.932;4.442;2024-03-25T14:33:31;24.00;46.00
22418;DHT22;11376;50.932;4.442;2024-03-25T14:35:57;23.90;46.00
22418;DHT22;11376;50.932;4.442;2024-03-25T14:38:23;22.50;46.70
22418;DHT22;11376;50.932;4.442;2024-03-25T14:40:49;23.00;46.50
22418;DHT22;11376;50.932;4.442;2024-03-25T14:43:15;23.90;46.20
22418;DHT22;11376;50.932;4.442;2024-03-25T14:45:44;23.50;44.50
22418;DHT22;11376;50.932;4.442;2024-03-25T14:48:10;23.20;46.90
22418;DHT22;11376;50.932;4.442;2024-03-25T14:50:36;24.00;46.80
22418;DHT22;11376;50.932;4.442;2024-03-25T14:53:02;24.30;45.80
22418;DHT22;11376;50.932;4.442;2024-03-25T14:55:29;24.90;44.90
22418;DHT22;11376;50.932;4.442;2024-03-25T14:57:55;24.80;44.60
22418;DHT22;11376;50.932;4.442;2024-03-25T15:00:21;24.10;45.10
22418;DHT22;11376;50.932;4.442;2024-03-25T15:02:50;23.30;46.10
22418;DHT22;11376;50.932;4.442;2024-03-25T15:05:16;23.50;46.10
22418;DHT22;11376;50.932;4.442;2024-03-25T15:07:42;23.70;46.10
22418;DHT22;11376;50.932;4.442;2024-03-25T15:10:08;23.60;45.60
22418;DHT22;11376;50.932;4.442;2024-03-25T15:12:33;22.20;47.50
22418;DHT22;11376;50.932;4.442;2024-03-25T15:15:03;22.50;47.60
22418;DHT22;11376;50.932;4.442;2024-03-25T15:17:32;21.90;48.40
22418;DHT22;11376;50.932;4.442;2024-03-25T15:19:57;21.80;48.60
22418;DHT22;11376;50.932;4.442;2024-03-25T15:22:23;21.00;48.90
22418;DHT22;11376;50.932;4.442;2024-03-25T15:24:49;21.20;49.40
22418;DHT22;11376;50.932;4.442;2024-03-25T15:27:15;21.50;49.60
22418;DHT22;11376;50.932;4.442;2024-03-25T15:29:41;21.80;49.80
22418;DHT22;11376;50.932;4.442;2024-03-25T15:32:06;21.70;49.90
22418;DHT22;11376;50.932;4.442;2024-03-25T15:34:32;21.30;50.20
22418;DHT22;11376;50.932;4.442;2024-03-25T15:36:58;20.70;51.90
22418;DHT22;11376;50.932;4.442;2024-03-25T15:39:24;20.20;52.00
22418;DHT22;11376;50.932;4.442;2024-03-25T15:41:49;19.80;53.10
22418;DHT22;11376;50.932;4.442;2024-03-25T15:44:15;19.30;54.60